sensor_id;sensor_type;location;lat;lon;timestamp;P1;durP1;ratioP1;P2;durP2;ratioP2
33495;SDS011;19836;55.812;37.560;2023-12-07T00:01:12;19.60;;;10.55;;
33495;SDS011;19836;55.812;37.560;2023-12-07T00:03:43;21.52;;;11.50;;
33495;SDS011;19836;55.812;37.560;2023-12-07T00:06:09;17.73;;;10.75;;
33495;SDS011;19836;55.812;37.560;2023-12-07T00:08:51;17.88;;;10.75;;
33495;SDS011;19836;55.812;37.560;2023-12-07T00:11:22;15.77;;;8.80;;
33495;SDS011;19836;55.812;37.560;2023-12-07T00:13:49;21.55;;;12.20;;
33495;SDS011;19836;55.812;37.560;2023-12-07T00:16:15;16.40;;;10.40;;
33495;SDS011;19836;55.812;37.560;2023-12-07T00:18:42;15.98;;;10.25;;
33495;SDS011;19836;55.812;37.560;2023-12-07T00:21:09;21.13;;;11.20;;
33495;SDS011;19836;55.812;37.560;2023-12-07T00:23:36;18.83;;;10.65;;
33495;SDS011;19836;55.812;37.560;2023-12-07T00:26:05;17.70;;;10.45;;
33495;SDS011;19836;55.812;37.560;2023-12-07T00:28:31;18.73;;;11.57;;
33495;SDS011;19836;55.812;37.560;2023-12-07T00:30:57;17.52;;;10.18;;
33495;SDS011;19836;55.812;37.560;2023-12-07T00:33:26;19.15;;;11.27;;
33495;SDS011;19836;55.812;37.560;2023-12-07T00:35:52;21.52;;;11.05;;
33495;SDS011;19836;55.812;37.560;2023-12-07T00:41:10;15.55;;;9.25;;
33495;SDS011;19836;55.812;37.560;2023-12-07T00:43:44;18.08;;;10.25;;
33495;SDS011;19836;55.812;37.560;2023-12-07T00:46:11;22.05;;;11.05;;
33495;SDS011;19836;55.812;37.560;2023-12-07T00:48:37;20.45;;;11.93;;
33495;SDS011;19836;55.812;37.560;2023-12-07T00:51:03;18.05;;;10.13;;
33495;SDS011;19836;55.812;37.560;2023-12-07T00:53:31;20.38;;;11.95;;
33495;SDS011;19836;55.812;37.560;2023-12-07T00:55:57;17.45;;;10.75;;
33495;SDS011;19836;55.812;37.560;2023-12-07T00:58:24;18.55;;;11.43;;
33495;SDS011;19836;55.812;37.560;2023-12-07T01:00:50;19.40;;;11.07;;
33495;SDS011;19836;55.812;37.560;2023-12-07T01:03:16;18.73;;;9.82;;
33495;SDS011;19836;55.812;37.560;2023-12-07T01:05:43;18.40;;;11.05;;
33495;SDS011;19836;55.812;37.560;2023-12-07T01:08:09;16.55;;;10.93;;
33495;SDS011;19836;55.812;37.560;2023-12-07T01:10:35;15.05;;;9.20;;
33495;SDS011;19836;55.812;37.560;2023-12-07T01:13:02;17.42;;;9.77;;
33495;SDS011;19836;55.812;37.560;2023-12-07T01:15:28;16.85;;;10.02;;
33495;SDS011;19836;55.812;37.560;2023-12-07T01:17:54;19.00;;;10.57;;
33495;SDS011;19836;55.812;37.560;2023-12-07T01:20:20;17.75;;;10.77;;
33495;SDS011;19836;55.812;37.560;2023-12-07T01:22:46;16.95;;;9.55;;
33495;SDS011;19836;55.812;37.560;2023-12-07T01:25:12;18.65;;;11.20;;
33495;SDS011;19836;55.812;37.560;2023-12-07T01:27:43;19.13;;;10.52;;
33495;SDS011;19836;55.812;37.560;2023-12-07T01:30:10;19.13;;;10.98;;
33495;SDS011;19836;55.812;37.560;2023-12-07T01:32:36;16.73;;;9.68;;
33495;SDS011;19836;55.812;37.560;2023-12-07T01:35:04;16.60;;;9.27;;
33495;SDS011;19836;55.812;37.560;2023-12-07T01:37:30;14.85;;;9.35;;
33495;SDS011;19836;55.812;37.560;2023-12-07T01:39:56;18.20;;;10.45;;
33495;SDS011;19836;55.812;37.560;2023-12-07T01:42:22;18.50;;;11.50;;
33495;SDS011;19836;55.812;37.560;2023-12-07T01:44:48;17.75;;;10.32;;
33495;SDS011;19836;55.812;37.560;2023-12-07T01:47:14;16.52;;;9.65;;
33495;SDS011;19836;55.812;37.560;2023-12-07T01:49:43;16.00;;;9.30;;
33495;SDS011;19836;55.812;37.560;2023-12-07T01:52:09;15.48;;;9.07;;
33495;SDS011;19836;55.812;37.560;2023-12-07T01:54:36;16.08;;;9.48;;
33495;SDS011;19836;55.812;37.560;2023-12-07T01:57:03;16.42;;;8.98;;
33495;SDS011;19836;55.812;37.560;2023-12-07T01:59:31;15.00;;;9.50;;
33495;SDS011;19836;55.812;37.560;2023-12-07T02:01:58;17.35;;;9.65;;
33495;SDS011;19836;55.812;37.560;2023-12-07T02:04:24;14.23;;;8.60;;
33495;SDS011;19836;55.812;37.560;2023-12-07T02:06:53;15.75;;;10.40;;
33495;SDS011;19836;55.812;37.560;2023-12-07T02:09:23;15.68;;;9.60;;
33495;SDS011;19836;55.812;37.560;2023-12-07T02:11:49;17.10;;;9.23;;
33495;SDS011;19836;55.812;37.560;2023-12-07T02:14:15;18.42;;;10.10;;
33495;SDS011;19836;55.812;37.560;2023-12-07T02:17:32;16.90;;;9.68;;
33495;SDS011;19836;55.812;37.560;2023-12-07T02:22:24;17.35;;;8.77;;
33495;SDS011;19836;55.812;37.560;2023-12-07T02:25:14;16.63;;;9.15;;
33495;SDS011;19836;55.812;37.560;2023-12-07T02:27:41;14.38;;;8.43;;
33495;SDS011;19836;55.812;37.560;2023-12-07T02:30:11;16.23;;;9.55;;
33495;SDS011;19836;55.812;37.560;2023-12-07T02:32:38;14.98;;;9.18;;
33495;SDS011;19836;55.812;37.560;2023-12-07T02:35:07;17.80;;;9.45;;
33495;SDS011;19836;55.812;37.560;2023-12-07T02:37:40;17.38;;;9.43;;
33495;SDS011;19836;55.812;37.560;2023-12-07T02:40:09;16.60;;;8.52;;
33495;SDS011;19836;55.812;37.560;2023-12-07T02:42:39;16.58;;;9.05;;
33495;SDS011;19836;55.812;37.560;2023-12-07T02:45:07;17.52;;;10.02;;
33495;SDS011;19836;55.812;37.560;2023-12-07T02:47:33;17.10;;;8.95;;
33495;SDS011;19836;55.812;37.560;2023-12-07T02:50:00;16.75;;;9.75;;
33495;SDS011;19836;55.812;37.560;2023-12-07T02:52:27;14.77;;;8.50;;
33495;SDS011;19836;55.812;37.560;2023-12-07T02:54:54;16.30;;;9.25;;
33495;SDS011;19836;55.812;37.560;2023-12-07T02:57:20;16.27;;;9.30;;
33495;SDS011;19836;55.812;37.560;2023-12-07T02:59:46;20.13;;;11.50;;
33495;SDS011;19836;55.812;37.560;2023-12-07T03:02:12;15.68;;;9.35;;
33495;SDS011;19836;55.812;37.560;2023-12-07T03:04:38;16.42;;;8.98;;
33495;SDS011;19836;55.812;37.560;2023-12-07T03:07:04;14.80;;;7.60;;
33495;SDS011;19836;55.812;37.560;2023-12-07T03:09:30;15.52;;;9.38;;
33495;SDS011;19836;55.812;37.560;2023-12-07T03:11:56;14.57;;;8.80;;
33495;SDS011;19836;55.812;37.560;2023-12-07T03:14:28;14.73;;;9.00;;
33495;SDS011;19836;55.812;37.560;2023-12-07T03:17:03;15.88;;;9.10;;
33495;SDS011;19836;55.812;37.560;2023-12-07T03:19:30;16.00;;;8.93;;
33495;SDS011;19836;55.812;37.560;2023-12-07T03:21:55;16.80;;;8.90;;
33495;SDS011;19836;55.812;37.560;2023-12-07T03:24:22;15.02;;;8.73;;
33495;SDS011;19836;55.812;37.560;2023-12-07T03:26:48;12.30;;;8.02;;
33495;SDS011;19836;55.812;37.560;2023-12-07T03:29:18;15.70;;;9.13;;
33495;SDS011;19836;55.812;37.560;2023-12-07T03:37:26;14.20;;;8.93;;
33495;SDS011;19836;55.812;37.560;2023-12-07T03:39:56;13.80;;;8.43;;
33495;SDS011;19836;55.812;37.560;2023-12-07T04:25:07;15.30;;;9.32;;
33495;SDS011;19836;55.812;37.560;2023-12-07T04:33:40;16.40;;;9.90;;
33495;SDS011;19836;55.812;37.560;2023-12-07T04:36:07;21.65;;;11.60;;
33495;SDS011;19836;55.812;37.560;2023-12-07T04:38:33;19.98;;;11.52;;
33495;SDS011;19836;55.812;37.560;2023-12-07T04:40:59;18.20;;;10.40;;
33495;SDS011;19836;55.812;37.560;2023-12-07T04:43:25;20.27;;;11.18;;
33495;SDS011;19836;55.812;37.560;2023-12-07T04:45:51;19.23;;;11.65;;
33495;SDS011;19836;55.812;37.560;2023-12-07T04:48:20;19.35;;;10.63;;
33495;SDS011;19836;55.812;37.560;2023-12-07T04:54:35;18.52;;;10.15;;
33495;SDS011;19836;55.812;37.560;2023-12-07T04:57:02;17.35;;;10.38;;
33495;SDS011;19836;55.812;37.560;2023-12-07T04:59:28;18.65;;;10.93;;
33495;SDS011;19836;55.812;37.560;2023-12-07T05:01:55;18.60;;;10.45;;
33495;SDS011;19836;55.812;37.560;2023-12-07T05:04:21;17.85;;;10.85;;
33495;SDS011;19836;55.812;37.560;2023-12-07T05:06:47;16.60;;;10.20;;
33495;SDS011;19836;55.812;37.560;2023-12-07T05:09:13;18.00;;;10.88;;
33495;SDS011;19836;55.812;37.560;2023-12-07T05:11:40;15.38;;;9.50;;
33495;SDS011;19836;55.812;37.560;2023-12-07T05:14:06;15.63;;;9.13;;
33495;SDS011;19836;55.812;37.560;2023-12-07T05:16:32;18.85;;;10.07;;
33495;SDS011;19836;55.812;37.560;2023-12-07T05:18:59;19.45;;;10.43;;
33495;SDS011;19836;55.812;37.560;2023-12-07T05:21:25;17.42;;;10.65;;
33495;SDS011;19836;55.812;37.560;2023-12-07T05:23:51;17.27;;;10.30;;
33495;SDS011;19836;55.812;37.560;2023-12-07T05:26:19;20.40;;;10.63;;
33495;SDS011;19836;55.812;37.560;2023-12-07T05:28:49;17.35;;;9.88;;
33495;SDS011;19836;55.812;37.560;2023-12-07T05:31:16;19.13;;;11.30;;
33495;SDS011;19836;55.812;37.560;2023-12-07T05:33:43;18.65;;;10.85;;
33495;SDS011;19836;55.812;37.560;2023-12-07T05:36:09;25.58;;;12.73;;
33495;SDS011;19836;55.812;37.560;2023-12-07T05:38:35;21.88;;;11.80;;
33495;SDS011;19836;55.812;37.560;2023-12-07T05:41:01;17.17;;;10.05;;
33495;SDS011;19836;55.812;37.560;2023-12-07T05:43:27;17.40;;;10.65;;
33495;SDS011;19836;55.812;37.560;2023-12-07T05:45:53;19.10;;;10.43;;
33495;SDS011;19836;55.812;37.560;2023-12-07T05:48:18;17.25;;;10.48;;
33495;SDS011;19836;55.812;37.560;2023-12-07T05:50:44;19.20;;;11.35;;
33495;SDS011;19836;55.812;37.560;2023-12-07T05:53:10;19.92;;;11.65;;
33495;SDS011;19836;55.812;37.560;2023-12-07T05:55:36;19.48;;;10.55;;
33495;SDS011;19836;55.812;37.560;2023-12-07T05:58:02;21.30;;;11.52;;
33495;SDS011;19836;55.812;37.560;2023-12-07T06:00:32;21.00;;;12.63;;
33495;SDS011;19836;55.812;37.560;2023-12-07T06:02:58;24.25;;;12.35;;
33495;SDS011;19836;55.812;37.560;2023-12-07T06:05:25;21.85;;;11.90;;
33495;SDS011;19836;55.812;37.560;2023-12-07T06:07:53;21.25;;;10.80;;
33495;SDS011;19836;55.812;37.560;2023-12-07T06:21:21;23.08;;;11.68;;
33495;SDS011;19836;55.812;37.560;2023-12-07T06:23:47;24.73;;;12.00;;
33495;SDS011;19836;55.812;37.560;2023-12-07T06:26:13;19.02;;;11.50;;
33495;SDS011;19836;55.812;37.560;2023-12-07T06:28:39;22.42;;;13.30;;
33495;SDS011;19836;55.812;37.560;2023-12-07T06:38:31;25.20;;;12.75;;
33495;SDS011;19836;55.812;37.560;2023-12-07T06:41:02;21.73;;;12.77;;
33495;SDS011;19836;55.812;37.560;2023-12-07T06:43:51;27.02;;;14.52;;
33495;SDS011;19836;55.812;37.560;2023-12-07T06:49:57;24.05;;;14.35;;
33495;SDS011;19836;55.812;37.560;2023-12-07T06:52:28;20.73;;;11.05;;
33495;SDS011;19836;55.812;37.560;2023-12-07T06:54:59;19.52;;;10.48;;
33495;SDS011;19836;55.812;37.560;2023-12-07T06:57:26;18.08;;;9.93;;
33495;SDS011;19836;55.812;37.560;2023-12-07T06:59:52;22.58;;;11.82;;
33495;SDS011;19836;55.812;37.560;2023-12-07T07:02:26;15.98;;;9.73;;
33495;SDS011;19836;55.812;37.560;2023-12-07T07:08:57;16.15;;;10.13;;
33495;SDS011;19836;55.812;37.560;2023-12-07T07:11:31;18.55;;;9.48;;
33495;SDS011;19836;55.812;37.560;2023-12-07T07:14:00;17.05;;;9.45;;
33495;SDS011;19836;55.812;37.560;2023-12-07T07:19:30;19.15;;;10.90;;
33495;SDS011;19836;55.812;37.560;2023-12-07T07:21:57;20.98;;;10.77;;
33495;SDS011;19836;55.812;37.560;2023-12-07T07:24:26;20.08;;;11.73;;
33495;SDS011;19836;55.812;37.560;2023-12-07T07:26:53;20.45;;;11.38;;
33495;SDS011;19836;55.812;37.560;2023-12-07T07:29:19;20.67;;;11.07;;
33495;SDS011;19836;55.812;37.560;2023-12-07T07:31:46;16.20;;;10.77;;
33495;SDS011;19836;55.812;37.560;2023-12-07T07:34:29;17.17;;;10.57;;
33495;SDS011;19836;55.812;37.560;2023-12-07T07:52:12;23.30;;;10.55;;
33495;SDS011;19836;55.812;37.560;2023-12-07T07:54:38;19.73;;;10.27;;
33495;SDS011;19836;55.812;37.560;2023-12-07T07:57:04;18.02;;;10.05;;
33495;SDS011;19836;55.812;37.560;2023-12-07T07:59:30;16.85;;;10.18;;
33495;SDS011;19836;55.812;37.560;2023-12-07T08:01:57;18.65;;;9.95;;
33495;SDS011;19836;55.812;37.560;2023-12-07T08:04:23;15.73;;;9.65;;
33495;SDS011;19836;55.812;37.560;2023-12-07T08:06:51;20.10;;;11.25;;
33495;SDS011;19836;55.812;37.560;2023-12-07T08:09:17;14.02;;;9.18;;
33495;SDS011;19836;55.812;37.560;2023-12-07T08:11:43;15.98;;;9.27;;
33495;SDS011;19836;55.812;37.560;2023-12-07T08:14:12;15.80;;;9.27;;
33495;SDS011;19836;55.812;37.560;2023-12-07T08:16:42;16.27;;;9.73;;
33495;SDS011;19836;55.812;37.560;2023-12-07T08:19:11;20.33;;;11.32;;
33495;SDS011;19836;55.812;37.560;2023-12-07T08:21:40;17.88;;;9.55;;
33495;SDS011;19836;55.812;37.560;2023-12-07T08:24:06;16.48;;;10.38;;
33495;SDS011;19836;55.812;37.560;2023-12-07T08:26:36;19.33;;;10.95;;
33495;SDS011;19836;55.812;37.560;2023-12-07T08:29:08;23.45;;;12.43;;
33495;SDS011;19836;55.812;37.560;2023-12-07T08:31:34;18.48;;;10.88;;
33495;SDS011;19836;55.812;37.560;2023-12-07T08:39:48;17.98;;;10.98;;
33495;SDS011;19836;55.812;37.560;2023-12-07T08:46:03;20.90;;;11.15;;
33495;SDS011;19836;55.812;37.560;2023-12-07T08:48:55;22.27;;;12.23;;
33495;SDS011;19836;55.812;37.560;2023-12-07T08:51:22;19.90;;;11.77;;
33495;SDS011;19836;55.812;37.560;2023-12-07T08:54:11;19.95;;;12.20;;
33495;SDS011;19836;55.812;37.560;2023-12-07T08:59:32;20.92;;;12.30;;
33495;SDS011;19836;55.812;37.560;2023-12-07T09:02:20;20.65;;;12.80;;
33495;SDS011;19836;55.812;37.560;2023-12-07T09:04:46;19.48;;;11.93;;
33495;SDS011;19836;55.812;37.560;2023-12-07T09:07:32;20.08;;;12.55;;
33495;SDS011;19836;55.812;37.560;2023-12-07T09:09:58;20.45;;;10.10;;
33495;SDS011;19836;55.812;37.560;2023-12-07T09:12:25;22.38;;;12.02;;
33495;SDS011;19836;55.812;37.560;2023-12-07T09:14:51;17.80;;;10.95;;
33495;SDS011;19836;55.812;37.560;2023-12-07T09:17:20;18.83;;;10.85;;
33495;SDS011;19836;55.812;37.560;2023-12-07T09:19:51;17.17;;;10.85;;
33495;SDS011;19836;55.812;37.560;2023-12-07T09:22:18;18.45;;;10.77;;
33495;SDS011;19836;55.812;37.560;2023-12-07T09:24:45;16.88;;;9.90;;
33495;SDS011;19836;55.812;37.560;2023-12-07T09:28:15;12.40;;;7.75;;
33495;SDS011;19836;55.812;37.560;2023-12-07T09:30:44;16.65;;;9.90;;
33495;SDS011;19836;55.812;37.560;2023-12-07T09:39:42;18.48;;;9.85;;
33495;SDS011;19836;55.812;37.560;2023-12-07T09:42:11;15.60;;;9.57;;
33495;SDS011;19836;55.812;37.560;2023-12-07T09:44:38;17.73;;;10.40;;
33495;SDS011;19836;55.812;37.560;2023-12-07T09:47:07;16.92;;;9.48;;
33495;SDS011;19836;55.812;37.560;2023-12-07T09:49:34;18.50;;;11.50;;
33495;SDS011;19836;55.812;37.560;2023-12-07T09:52:00;19.33;;;9.32;;
33495;SDS011;19836;55.812;37.560;2023-12-07T09:54:30;21.83;;;9.80;;
33495;SDS011;19836;55.812;37.560;2023-12-07T09:56:56;18.80;;;9.10;;
33495;SDS011;19836;55.812;37.560;2023-12-07T09:59:22;13.77;;;8.88;;
33495;SDS011;19836;55.812;37.560;2023-12-07T10:01:48;17.33;;;10.25;;
33495;SDS011;19836;55.812;37.560;2023-12-07T10:04:18;18.98;;;10.82;;
33495;SDS011;19836;55.812;37.560;2023-12-07T10:06:45;17.02;;;10.48;;
33495;SDS011;19836;55.812;37.560;2023-12-07T10:09:13;19.35;;;11.93;;
33495;SDS011;19836;55.812;37.560;2023-12-07T10:11:40;18.15;;;10.55;;
33495;SDS011;19836;55.812;37.560;2023-12-07T10:14:06;16.98;;;9.93;;
33495;SDS011;19836;55.812;37.560;2023-12-07T10:16:33;18.05;;;11.63;;
33495;SDS011;19836;55.812;37.560;2023-12-07T10:19:15;18.73;;;11.75;;
33495;SDS011;19836;55.812;37.560;2023-12-07T10:21:44;20.40;;;12.48;;
33495;SDS011;19836;55.812;37.560;2023-12-07T10:24:11;20.60;;;12.50;;
33495;SDS011;19836;55.812;37.560;2023-12-07T10:26:38;23.13;;;12.73;;
33495;SDS011;19836;55.812;37.560;2023-12-07T10:29:05;21.13;;;12.95;;
33495;SDS011;19836;55.812;37.560;2023-12-07T10:31:32;19.90;;;11.45;;
33495;SDS011;19836;55.812;37.560;2023-12-07T10:33:59;21.05;;;10.80;;
33495;SDS011;19836;55.812;37.560;2023-12-07T10:36:36;21.77;;;12.45;;
33495;SDS011;19836;55.812;37.560;2023-12-07T10:39:02;23.10;;;13.40;;
33495;SDS011;19836;55.812;37.560;2023-12-07T10:41:31;19.48;;;12.32;;
33495;SDS011;19836;55.812;37.560;2023-12-07T10:52:27;20.65;;;12.82;;
33495;SDS011;19836;55.812;37.560;2023-12-07T10:57:55;18.73;;;10.82;;
33495;SDS011;19836;55.812;37.560;2023-12-07T11:00:25;18.80;;;10.95;;
33495;SDS011;19836;55.812;37.560;2023-12-07T11:02:53;22.20;;;11.90;;
33495;SDS011;19836;55.812;37.560;2023-12-07T11:05:20;18.35;;;11.35;;
33495;SDS011;19836;55.812;37.560;2023-12-07T11:08:05;17.05;;;10.32;;
33495;SDS011;19836;55.812;37.560;2023-12-07T11:10:36;18.38;;;10.38;;
33495;SDS011;19836;55.812;37.560;2023-12-07T11:13:13;19.13;;;11.27;;
33495;SDS011;19836;55.812;37.560;2023-12-07T11:15:46;22.42;;;11.00;;
33495;SDS011;19836;55.812;37.560;2023-12-07T11:18:12;21.17;;;10.48;;
33495;SDS011;19836;55.812;37.560;2023-12-07T11:23:46;19.98;;;10.57;;
33495;SDS011;19836;55.812;37.560;2023-12-07T11:30:42;16.95;;;10.02;;
33495;SDS011;19836;55.812;37.560;2023-12-07T11:34:29;18.50;;;11.13;;
33495;SDS011;19836;55.812;37.560;2023-12-07T11:37:11;20.38;;;10.68;;
33495;SDS011;19836;55.812;37.560;2023-12-07T11:40:14;19.88;;;11.40;;
33495;SDS011;19836;55.812;37.560;2023-12-07T12:54:11;15.60;;;9.80;;
33495;SDS011;19836;55.812;37.560;2023-12-07T12:56:39;13.10;;;8.85;;
33495;SDS011;19836;55.812;37.560;2023-12-07T12:59:05;18.70;;;9.38;;
33495;SDS011;19836;55.812;37.560;2023-12-07T13:01:31;19.63;;;10.60;;
33495;SDS011;19836;55.812;37.560;2023-12-07T13:03:57;17.45;;;9.38;;
33495;SDS011;19836;55.812;37.560;2023-12-07T13:06:23;16.80;;;10.10;;
33495;SDS011;19836;55.812;37.560;2023-12-07T13:08:50;16.60;;;8.98;;
33495;SDS011;19836;55.812;37.560;2023-12-07T13:11:17;15.75;;;8.85;;
33495;SDS011;19836;55.812;37.560;2023-12-07T13:13:45;15.45;;;9.18;;
33495;SDS011;19836;55.812;37.560;2023-12-07T13:16:16;15.27;;;9.48;;
33495;SDS011;19836;55.812;37.560;2023-12-07T13:18:42;18.10;;;9.65;;
33495;SDS011;19836;55.812;37.560;2023-12-07T14:15:12;144.52;;;24.33;;
33495;SDS011;19836;55.812;37.560;2023-12-07T14:28:05;18.08;;;12.13;;
33495;SDS011;19836;55.812;37.560;2023-12-07T14:30:34;15.98;;;9.05;;
33495;SDS011;19836;55.812;37.560;2023-12-07T14:48:19;21.88;;;10.80;;
33495;SDS011;19836;55.812;37.560;2023-12-07T14:51:24;33.35;;;12.27;;
33495;SDS011;19836;55.812;37.560;2023-12-07T14:54:22;43.22;;;16.35;;
33495;SDS011;19836;55.812;37.560;2023-12-07T14:56:52;50.42;;;20.63;;
33495;SDS011;19836;55.812;37.560;2023-12-07T14:59:18;64.57;;;25.25;;
33495;SDS011;19836;55.812;37.560;2023-12-07T15:01:45;75.00;;;29.55;;
33495;SDS011;19836;55.812;37.560;2023-12-07T15:04:11;67.97;;;27.98;;
33495;SDS011;19836;55.812;37.560;2023-12-07T15:06:37;70.45;;;28.30;;
33495;SDS011;19836;55.812;37.560;2023-12-07T15:15:12;30.70;;;15.35;;
33495;SDS011;19836;55.812;37.560;2023-12-07T15:17:38;29.55;;;14.95;;
33495;SDS011;19836;55.812;37.560;2023-12-07T15:21:51;18.95;;;10.10;;
33495;SDS011;19836;55.812;37.560;2023-12-07T15:24:20;20.55;;;10.90;;
33495;SDS011;19836;55.812;37.560;2023-12-07T15:27:04;20.80;;;11.63;;
33495;SDS011;19836;55.812;37.560;2023-12-07T15:29:30;22.42;;;13.15;;
33495;SDS011;19836;55.812;37.560;2023-12-07T15:32:03;23.83;;;14.90;;
33495;SDS011;19836;55.812;37.560;2023-12-07T15:34:34;18.77;;;10.35;;
33495;SDS011;19836;55.812;37.560;2023-12-07T15:40:56;17.35;;;10.43;;
33495;SDS011;19836;55.812;37.560;2023-12-07T15:44:06;16.75;;;11.05;;
33495;SDS011;19836;55.812;37.560;2023-12-07T15:54:40;18.35;;;10.23;;
33495;SDS011;19836;55.812;37.560;2023-12-07T15:57:06;22.83;;;15.05;;
33495;SDS011;19836;55.812;37.560;2023-12-07T15:59:34;16.67;;;9.18;;
33495;SDS011;19836;55.812;37.560;2023-12-07T16:02:00;18.52;;;10.35;;
33495;SDS011;19836;55.812;37.560;2023-12-07T16:04:28;19.70;;;11.52;;
33495;SDS011;19836;55.812;37.560;2023-12-07T16:17:05;16.17;;;9.27;;
33495;SDS011;19836;55.812;37.560;2023-12-07T16:19:33;19.33;;;10.85;;
33495;SDS011;19836;55.812;37.560;2023-12-07T16:21:59;17.33;;;10.32;;
33495;SDS011;19836;55.812;37.560;2023-12-07T16:24:25;18.80;;;9.85;;
33495;SDS011;19836;55.812;37.560;2023-12-07T16:26:51;18.90;;;10.32;;
33495;SDS011;19836;55.812;37.560;2023-12-07T16:29:42;17.67;;;9.77;;
33495;SDS011;19836;55.812;37.560;2023-12-07T16:32:18;23.88;;;13.20;;
33495;SDS011;19836;55.812;37.560;2023-12-07T16:47:43;17.48;;;9.07;;
33495;SDS011;19836;55.812;37.560;2023-12-07T16:50:20;13.50;;;8.45;;
33495;SDS011;19836;55.812;37.560;2023-12-07T16:56:34;13.95;;;8.02;;
33495;SDS011;19836;55.812;37.560;2023-12-07T16:59:10;11.57;;;7.00;;
33495;SDS011;19836;55.812;37.560;2023-12-07T17:07:23;19.50;;;11.30;;
33495;SDS011;19836;55.812;37.560;2023-12-07T17:09:56;16.65;;;8.80;;
33495;SDS011;19836;55.812;37.560;2023-12-07T17:12:22;15.85;;;8.82;;
33495;SDS011;19836;55.812;37.560;2023-12-07T17:14:49;17.77;;;9.50;;
33495;SDS011;19836;55.812;37.560;2023-12-07T17:17:16;16.63;;;9.77;;
33495;SDS011;19836;55.812;37.560;2023-12-07T17:19:43;19.30;;;9.60;;
33495;SDS011;19836;55.812;37.560;2023-12-07T17:22:09;15.65;;;9.20;;
33495;SDS011;19836;55.812;37.560;2023-12-07T17:24:36;15.38;;;9.57;;
33495;SDS011;19836;55.812;37.560;2023-12-07T17:27:02;14.13;;;8.43;;
33495;SDS011;19836;55.812;37.560;2023-12-07T17:29:32;16.30;;;9.60;;
33495;SDS011;19836;55.812;37.560;2023-12-07T17:32:33;15.80;;;9.10;;
33495;SDS011;19836;55.812;37.560;2023-12-07T17:34:59;17.55;;;9.55;;
33495;SDS011;19836;55.812;37.560;2023-12-07T17:37:26;19.02;;;10.02;;
33495;SDS011;19836;55.812;37.560;2023-12-07T17:54:56;16.38;;;9.88;;
33495;SDS011;19836;55.812;37.560;2023-12-07T18:13:33;10.95;;;6.70;;
33495;SDS011;19836;55.812;37.560;2023-12-07T18:16:00;10.52;;;6.38;;
33495;SDS011;19836;55.812;37.560;2023-12-07T18:18:30;11.32;;;6.18;;
33495;SDS011;19836;55.812;37.560;2023-12-07T18:23:27;7.82;;;5.40;;
33495;SDS011;19836;55.812;37.560;2023-12-07T18:26:09;7.43;;;4.93;;
33495;SDS011;19836;55.812;37.560;2023-12-07T18:28:37;11.07;;;6.78;;
33495;SDS011;19836;55.812;37.560;2023-12-07T18:31:08;8.95;;;5.60;;
33495;SDS011;19836;55.812;37.560;2023-12-07T18:33:43;8.25;;;4.30;;
33495;SDS011;19836;55.812;37.560;2023-12-07T18:40:38;8.45;;;5.25;;
33495;SDS011;19836;55.812;37.560;2023-12-07T18:58:03;9.70;;;5.70;;
33495;SDS011;19836;55.812;37.560;2023-12-07T19:01:18;7.07;;;4.63;;
33495;SDS011;19836;55.812;37.560;2023-12-07T19:05:22;8.02;;;5.22;;
33495;SDS011;19836;55.812;37.560;2023-12-07T19:08:20;7.90;;;5.15;;
33495;SDS011;19836;55.812;37.560;2023-12-07T19:14:12;7.78;;;4.78;;
33495;SDS011;19836;55.812;37.560;2023-12-07T19:24:47;5.97;;;4.32;;
33495;SDS011;19836;55.812;37.560;2023-12-07T19:27:18;5.72;;;4.30;;
33495;SDS011;19836;55.812;37.560;2023-12-07T19:59:48;9.45;;;5.50;;
33495;SDS011;19836;55.812;37.560;2023-12-07T20:02:15;9.82;;;5.65;;
33495;SDS011;19836;55.812;37.560;2023-12-07T20:04:43;9.32;;;5.43;;
33495;SDS011;19836;55.812;37.560;2023-12-07T20:07:08;10.60;;;6.90;;
33495;SDS011;19836;55.812;37.560;2023-12-07T20:09:35;7.50;;;4.75;;
33495;SDS011;19836;55.812;37.560;2023-12-07T20:12:00;9.93;;;5.40;;
33495;SDS011;19836;55.812;37.560;2023-12-07T20:14:26;9.93;;;6.30;;
33495;SDS011;19836;55.812;37.560;2023-12-07T20:16:53;10.13;;;6.18;;
33495;SDS011;19836;55.812;37.560;2023-12-07T20:19:19;10.05;;;6.22;;
33495;SDS011;19836;55.812;37.560;2023-12-07T20:21:44;9.63;;;4.97;;
33495;SDS011;19836;55.812;37.560;2023-12-07T20:24:11;8.45;;;4.85;;
33495;SDS011;19836;55.812;37.560;2023-12-07T20:26:38;10.30;;;5.15;;
33495;SDS011;19836;55.812;37.560;2023-12-07T20:29:05;9.93;;;5.72;;
33495;SDS011;19836;55.812;37.560;2023-12-07T20:31:31;9.57;;;5.85;;
33495;SDS011;19836;55.812;37.560;2023-12-07T20:33:57;8.35;;;5.10;;
33495;SDS011;19836;55.812;37.560;2023-12-07T20:36:23;7.60;;;4.35;;
33495;SDS011;19836;55.812;37.560;2023-12-07T20:38:49;9.75;;;5.90;;
33495;SDS011;19836;55.812;37.560;2023-12-07T20:41:15;10.48;;;6.22;;
33495;SDS011;19836;55.812;37.560;2023-12-07T20:43:41;9.50;;;5.88;;
33495;SDS011;19836;55.812;37.560;2023-12-07T20:46:10;10.55;;;5.13;;
33495;SDS011;19836;55.812;37.560;2023-12-07T20:48:36;9.25;;;5.18;;
33495;SDS011;19836;55.812;37.560;2023-12-07T20:51:03;10.50;;;5.55;;
33495;SDS011;19836;55.812;37.560;2023-12-07T20:53:30;7.03;;;4.63;;
33495;SDS011;19836;55.812;37.560;2023-12-07T20:55:55;9.13;;;5.15;;
33495;SDS011;19836;55.812;37.560;2023-12-07T20:58:21;8.57;;;4.75;;
33495;SDS011;19836;55.812;37.560;2023-12-07T21:00:48;7.55;;;4.60;;
33495;SDS011;19836;55.812;37.560;2023-12-07T21:03:14;7.32;;;4.05;;
33495;SDS011;19836;55.812;37.560;2023-12-07T21:05:40;9.07;;;4.90;;
33495;SDS011;19836;55.812;37.560;2023-12-07T21:08:06;8.93;;;5.40;;
33495;SDS011;19836;55.812;37.560;2023-12-07T21:10:32;12.75;;;5.70;;
33495;SDS011;19836;55.812;37.560;2023-12-07T21:12:58;7.72;;;4.45;;
33495;SDS011;19836;55.812;37.560;2023-12-07T21:15:26;8.02;;;4.55;;
33495;SDS011;19836;55.812;37.560;2023-12-07T21:17:52;8.15;;;4.15;;
33495;SDS011;19836;55.812;37.560;2023-12-07T21:20:19;8.95;;;4.78;;
33495;SDS011;19836;55.812;37.560;2023-12-07T21:22:45;7.57;;;4.80;;
33495;SDS011;19836;55.812;37.560;2023-12-07T21:25:13;9.25;;;5.03;;
33495;SDS011;19836;55.812;37.560;2023-12-07T21:27:40;7.90;;;5.05;;
33495;SDS011;19836;55.812;37.560;2023-12-07T21:30:07;10.55;;;6.00;;
33495;SDS011;19836;55.812;37.560;2023-12-07T21:32:34;8.68;;;5.35;;
33495;SDS011;19836;55.812;37.560;2023-12-07T21:35:16;9.77;;;5.68;;
33495;SDS011;19836;55.812;37.560;2023-12-07T21:37:43;7.78;;;4.43;;
33495;SDS011;19836;55.812;37.560;2023-12-07T21:40:10;10.85;;;5.80;;
33495;SDS011;19836;55.812;37.560;2023-12-07T21:42:37;9.55;;;5.63;;
33495;SDS011;19836;55.812;37.560;2023-12-07T21:45:08;11.43;;;5.72;;
33495;SDS011;19836;55.812;37.560;2023-12-07T21:47:55;9.35;;;5.38;;
33495;SDS011;19836;55.812;37.560;2023-12-07T21:50:21;9.60;;;5.00;;
33495;SDS011;19836;55.812;37.560;2023-12-07T21:52:48;14.10;;;5.57;;
33495;SDS011;19836;55.812;37.560;2023-12-07T21:55:14;12.85;;;5.65;;